Time;durP1;ratioP1;P1;durP2;ratioP2;P2;SDS_P1;SDS_P2;PMS_P1;PMS_P2;Temp;Humidity;BMP_temperature;BMP_pressure;BME280_temperature;BME280_humidity;BME280_pressure;Samples;Min_cycle;Max_cycle;Signal;HPM_P1;HPM_P2
2022/06/12 00:01:55;;;;;;;6.35;6.10;;;;;;;17.23;100.00;100547.09;5051375;28;20027;-61
2022/06/12 00:04:20;;;;;;;6.40;6.10;;;;;;;17.23;100.00;100550.59;5051303;28;20032;-61
2022/06/12 00:06:48;;;;;;;6.50;6.20;;;;;;;17.22;100.00;100548.94;5050560;28;20079;-61
2022/06/12 00:09:14;;;;;;;6.50;6.20;;;;;;;17.22;100.00;100546.25;5051450;28;20028;-61
2022/06/12 00:11:41;;;;;;;6.38;6.07;;;;;;;17.20;100.00;100553.72;5049773;28;20020;-60
2022/06/12 00:14:07;;;;;;;6.85;6.55;;;;;;;17.22;100.00;100548.13;5049170;28;20075;-62
2022/06/12 00:16:35;;;;;;;6.40;6.10;;;;;;;17.24;100.00;100541.50;5042001;28;20021;-61
2022/06/12 00:19:02;;;;;;;6.50;6.20;;;;;;;17.24;100.00;100543.34;5054745;28;20040;-62
2022/06/12 00:21:31;;;;;;;6.40;6.10;;;;;;;17.20;100.00;100551.03;5047548;28;20431;-61
2022/06/12 00:24:04;;;;;;;6.50;6.20;;;;;;;17.25;100.00;100553.84;5049193;28;20096;-61
2022/06/12 00:26:46;;;;;;;6.10;5.90;;;;;;;17.27;100.00;100557.16;5051161;28;20025;-61
2022/06/12 00:29:13;;;;;;;6.47;6.18;;;;;;;17.29;100.00;100559.63;5045837;28;20028;-61
2022/06/12 00:31:44;;;;;;;6.20;6.00;;;;;;;17.32;100.00;100551.94;5041629;28;20057;-61
2022/06/12 00:34:11;;;;;;;6.50;6.20;;;;;;;17.30;100.00;100556.72;5055089;28;20029;-62
2022/06/12 00:36:36;;;;;;;6.40;6.10;;;;;;;17.27;100.00;100551.81;5054986;28;20056;-62
2022/06/12 00:39:04;;;;;;;6.32;6.03;;;;;;;17.31;100.00;100549.50;5053633;28;20056;-62
2022/06/12 00:41:29;;;;;;;6.43;6.13;;;;;;;17.28;100.00;100542.72;5052291;28;20029;-61
2022/06/12 00:43:55;;;;;;;6.70;6.40;;;;;;;17.27;100.00;100543.75;5038645;28;20040;-61
2022/06/12 00:46:41;;;;;;;6.50;6.20;;;;;;;17.27;100.00;100538.41;5045445;28;20024;-62
2022/06/12 00:49:24;;;;;;;6.22;6.00;;;;;;;17.28;100.00;100540.03;5044722;28;20084;-62
2022/06/12 00:51:55;;;;;;;6.03;5.82;;;;;;;17.31;100.00;100536.91;5054957;28;20167;-62
2022/06/12 00:54:21;;;;;;;6.40;6.10;;;;;;;17.31;100.00;100534.22;5054922;28;20025;-62
2022/06/12 00:56:51;;;;;;;6.50;6.20;;;;;;;17.30;100.00;100537.13;5054540;28;20029;-62
2022/06/12 00:59:47;;;;;;;6.70;6.40;;;;;;;17.33;100.00;100534.00;5053033;28;20044;-62
2022/06/12 01:02:16;;;;;;;6.28;6.05;;;;;;;17.29;100.00;100533.63;5045544;28;20037;-62
2022/06/12 01:07:29;;;;;;;;;;;;;;;17.32;100.00;100532.34;5041682;28;20130;-62
2022/06/12 01:10:01;;;;;;;6.40;6.10;;;;;;;17.34;100.00;100519.56;5053985;28;20406;-62
2022/06/12 01:12:33;;;;;;;6.50;6.20;;;;;;;17.31;100.00;100515.44;5054338;28;20480;-62
2022/06/12 01:15:04;;;;;;;6.40;6.10;;;;;;;17.33;100.00;100515.22;5044904;28;20029;-62
2022/06/12 01:17:30;;;;;;;6.60;6.30;;;;;;;17.29;100.00;100516.72;5054225;28;20025;-61
2022/06/12 01:20:00;;;;;;;6.57;6.28;;;;;;;17.29;100.00;100516.72;5049790;28;20025;-62
2022/06/12 01:22:44;;;;;;;6.70;6.40;;;;;;;17.29;100.00;100512.19;5051916;28;20033;-61
2022/06/12 01:25:50;;;;;;;6.43;6.13;;;;;;;17.29;100.00;100514.03;5040978;28;20026;-61
2022/06/12 01:28:47;;;;;;;6.40;6.10;;;;;;;17.27;100.00;100519.63;5046243;28;20500;-60
2022/06/12 01:31:31;;;;;;;6.40;6.10;;;;;;;17.27;100.00;100516.94;5053803;28;20511;-61
2022/06/12 01:34:11;;;;;;;6.47;6.18;;;;;;;17.31;100.00;100526.19;5042272;28;20059;-63
2022/06/12 01:36:48;;;;;;;6.25;6.03;;;;;;;17.22;100.00;100516.78;5054014;28;20098;-62
2022/06/12 01:39:23;;;;;;;6.45;6.15;;;;;;;17.22;100.00;100526.69;5051697;28;20033;-62
2022/06/12 01:42:00;;;;;;;6.28;6.07;;;;;;;17.25;100.00;100516.31;5053849;28;20056;-60
2022/06/12 01:44:41;;;;;;;6.55;6.25;;;;;;;17.25;100.00;100504.78;5053867;28;20025;-60
2022/06/12 01:47:31;;;;;;;6.50;6.20;;;;;;;17.27;100.00;100500.88;5053807;28;20400;-62
2022/06/12 01:50:05;;;;;;;6.45;6.15;;;;;;;17.27;100.00;100514.25;5052434;28;20024;-61
2022/06/12 01:52:33;;;;;;;;;;;;;;;17.29;100.00;100501.47;5054029;28;20017;-61
2022/06/12 01:55:10;;;;;;;6.60;6.30;;;;;;;17.24;100.00;100501.28;5051113;28;19923;-60
2022/06/12 01:57:51;;;;;;;6.50;6.20;;;;;;;17.21;100.00;100493.69;5053442;28;20079;-61
2022/06/12 02:00:21;;;;;;;6.20;6.00;;;;;;;17.22;100.00;100500.69;5061068;28;20029;-61
2022/06/12 02:03:04;;;;;;;6.55;6.25;;;;;;;17.21;100.00;100491.00;5053480;28;20780;-62
2022/06/12 02:05:56;;;;;;;6.20;6.00;;;;;;;17.18;100.00;100496.78;5051993;28;20410;-61
2022/06/12 02:08:21;;;;;;;6.40;6.10;;;;;;;17.26;100.00;100496.53;5044697;28;20427;-61
2022/06/12 02:13:11;;;;;;;6.28;6.03;;;;;;;17.21;100.00;100493.69;5047633;28;20029;-61
2022/06/12 02:13:48;;;;;;;6.18;5.95;;;;;;;17.21;100.00;100491.00;5039303;28;20117;-61
2022/06/12 02:16:22;;;;;;;6.40;6.10;;;;;;;17.27;100.00;100495.50;5043101;28;20025;-61
2022/06/12 02:19:14;;;;;;;6.10;5.90;;;;;;;17.26;100.00;100493.88;5053387;28;20078;-62
2022/06/12 02:21:49;;;;;;;6.30;6.00;;;;;;;17.28;100.00;100507.03;5030589;28;20489;-62
2022/06/12 02:24:27;;;;;;;6.00;5.80;;;;;;;17.23;100.00;100502.31;5041778;28;20048;-62
2022/06/12 02:27:00;;;;;;;6.50;6.20;;;;;;;17.24;100.00;100492.41;5051198;28;20032;-61
2022/06/12 02:29:56;;;;;;;6.43;6.13;;;;;;;17.26;100.00;100495.69;5051801;28;20021;-62
2022/06/12 02:32:31;;;;;;;6.45;6.15;;;;;;;17.28;100.00;100502.50;5053290;28;20093;-62
2022/06/12 02:35:06;;;;;;;6.38;6.10;;;;;;;17.36;100.00;100493.34;5052531;28;20485;-61
2022/06/12 02:37:39;;;;;;;6.38;6.07;;;;;;;17.36;100.00;100496.84;5044797;28;20476;-61
2022/06/12 02:40:14;;;;;;;6.10;5.90;;;;;;;17.35;100.00;100500.59;5051841;28;20115;-61
2022/06/12 02:42:44;;;;;;;6.15;5.95;;;;;;;17.39;100.00;100500.94;5047590;28;20147;-61
2022/06/12 02:45:23;;;;;;;6.50;6.20;;;;;;;17.43;100.00;100501.34;5048411;28;20108;-61
2022/06/12 02:47:49;;;;;;;6.22;6.00;;;;;;;17.48;100.00;100498.81;5052291;28;20561;-62
2022/06/12 02:50:21;;;;;;;6.35;6.05;;;;;;;17.52;100.00;100505.38;5061209;28;20032;-61
2022/06/12 02:53:09;;;;;;;6.15;5.95;;;;;;;17.54;100.00;100500.59;5054036;28;20021;-61
2022/06/12 02:55:46;;;;;;;6.20;6.00;;;;;;;17.57;100.00;100510.91;5044714;28;20504;-61
2022/06/12 02:58:53;;;;;;;6.60;6.30;;;;;;;17.59;100.00;100519.56;5051645;28;20078;-62
2022/06/12 03:01:22;;;;;;;6.15;5.95;;;;;;;17.63;100.00;100518.91;5017080;28;20036;-61
2022/06/12 03:03:53;;;;;;;6.40;6.10;;;;;;;17.66;100.00;100521.13;5052210;28;20040;-62
2022/06/12 03:06:19;;;;;;;6.60;6.30;;;;;;;17.61;100.00;100512.91;5053003;28;20497;-61
2022/06/12 03:08:49;;;;;;;6.50;6.20;;;;;;;17.67;100.00;100536.19;5058513;28;20385;-61
2022/06/12 03:11:25;;;;;;;6.10;5.90;;;;;;;17.72;100.00;100540.94;5051893;28;20078;-61
2022/06/12 03:13:53;;;;;;;6.05;5.85;;;;;;;17.75;100.00;100531.59;5050117;28;20028;-61
2022/06/12 03:16:24;;;;;;;6.28;6.00;;;;;;;17.89;100.00;100536.63;5048217;28;20029;-61
2022/06/12 03:18:56;;;;;;;6.18;5.97;;;;;;;18.03;100.00;100528.44;5046641;28;20040;-62
2022/06/12 03:21:45;;;;;;;6.40;6.10;;;;;;;18.10;100.00;100521.13;5051866;28;20040;-62
2022/06/12 03:24:32;;;;;;;6.50;6.20;;;;;;;18.21;100.00;100512.28;5051991;28;20024;-61
2022/06/12 03:27:39;;;;;;;6.40;6.10;;;;;;;18.39;100.00;100522.22;5051837;28;20433;-61
2022/06/12 03:30:13;;;;;;;6.40;6.10;;;;;;;18.49;100.00;100527.84;5042645;28;20033;-61
2022/06/12 03:32:53;;;;;;;6.70;6.40;;;;;;;18.68;100.00;100529.50;5041674;28;20360;-62
2022/06/12 03:35:38;;;;;;;6.40;6.10;;;;;;;18.67;100.00;100548.53;5052073;28;20037;-61
2022/06/12 03:38:18;;;;;;;6.45;6.15;;;;;;;19.04;100.00;100544.69;5052021;28;20025;-60
2022/06/12 03:41:00;;;;;;;6.30;6.00;;;;;;;19.31;100.00;100542.41;5052227;28;20464;-61
2022/06/12 03:43:28;;;;;;;6.38;6.07;;;;;;;20.62;100.00;100529.41;5051787;28;20117;-62
2022/06/12 03:46:19;;;;;;;6.55;6.25;;;;;;;19.78;100.00;100537.09;5044688;28;20044;-62
2022/06/12 03:48:47;;;;;;;6.47;6.18;;;;;;;19.63;100.00;100538.63;5043657;28;20051;-62
2022/06/12 03:51:21;;;;;;;6.57;6.28;;;;;;;19.43;100.00;100537.03;5051356;28;20153;-62
2022/06/12 03:53:54;;;;;;;6.45;6.15;;;;;;;19.23;100.00;100526.59;5051440;28;20491;-61
2022/06/12 03:59:41;;;;;;;6.78;6.47;;;;;;;19.91;100.00;100519.06;5052031;28;20035;-61
2022/06/12 04:02:10;;;;;;;6.50;6.20;;;;;;;20.79;100.00;100531.34;5022090;28;20029;-62
2022/06/12 04:04:38;;;;;;;6.88;6.57;;;;;;;20.73;100.00;100526.94;5050292;28;20065;-62
2022/06/12 04:07:07;;;;;;;6.90;6.60;;;;;;;23.78;93.28;100535.34;5050991;28;20025;-62
2022/06/12 04:09:39;;;;;;;6.55;6.25;;;;;;;23.19;95.08;100530.03;5051217;28;20060;-62
2022/06/12 04:12:10;;;;;;;6.80;6.50;;;;;;;25.72;81.75;100525.78;5051242;28;20029;-62
2022/06/12 04:14:43;;;;;;;7.10;6.80;;;;;;;27.83;71.49;100536.72;5052993;28;20030;-62
2022/06/12 04:17:08;;;;;;;6.90;6.60;;;;;;;28.19;69.02;100533.59;5056559;28;20098;-62
2022/06/12 04:19:58;;;;;;;6.70;6.40;;;;;;;25.44;80.58;100513.59;5051861;28;20016;-62
2022/06/12 04:22:25;;;;;;;6.80;6.50;;;;;;;24.97;82.49;100514.63;5034717;28;20073;-62
2022/06/12 04:24:59;;;;;;;6.70;6.40;;;;;;;23.28;88.54;100515.78;5046711;28;20032;-61
2022/06/12 04:27:27;;;;;;;6.45;6.15;;;;;;;22.82;91.97;100507.22;5038987;28;20025;-62
2022/06/12 04:30:04;;;;;;;6.60;6.30;;;;;;;22.67;93.93;100509.78;5039057;28;20033;-62
2022/06/12 04:32:30;;;;;;;6.57;6.28;;;;;;;22.30;96.57;100506.94;5054248;28;20029;-61
2022/06/12 04:34:57;;;;;;;6.80;6.50;;;;;;;22.40;96.35;100509.78;5050992;28;20039;-61
2022/06/12 04:37:26;;;;;;;6.60;6.30;;;;;;;22.37;95.85;100521.06;5051147;28;20086;-61
2022/06/12 04:39:52;;;;;;;6.80;6.50;;;;;;;21.66;100.00;100517.41;5048889;28;20173;-61
2022/06/12 04:42:21;;;;;;;6.70;6.40;;;;;;;21.51;100.00;100528.78;5037887;28;20392;-62
2022/06/12 04:44:47;;;;;;;6.53;6.22;;;;;;;21.59;100.00;100525.69;5051012;28;20029;-62
2022/06/12 04:47:17;;;;;;;7.00;6.70;;;;;;;22.44;96.35;100521.69;5051094;28;20032;-62
2022/06/12 04:49:44;;;;;;;6.70;6.40;;;;;;;22.19;96.93;100521.41;5063163;28;20036;-59
2022/06/12 04:52:11;;;;;;;6.78;6.47;;;;;;;22.08;97.53;100525.84;5050807;28;20040;-62
2022/06/12 04:54:39;;;;;;;6.80;6.50;;;;;;;21.36;100.00;100523.16;5050755;28;20036;-61
2022/06/12 04:57:06;;;;;;;6.80;6.50;;;;;;;21.33;100.00;100527.19;5047981;28;20037;-61
2022/06/12 04:59:33;;;;;;;6.82;6.53;;;;;;;20.87;100.00;100514.78;5050675;28;20021;-63
2022/06/12 05:01:59;;;;;;;6.75;6.45;;;;;;;20.84;100.00;100524.16;5050812;28;20036;-62
2022/06/12 05:04:26;;;;;;;6.80;6.50;;;;;;;21.28;100.00;100526.28;5051007;28;20397;-62
2022/06/12 05:06:52;;;;;;;6.60;6.30;;;;;;;20.96;100.00;100534.91;5051326;28;20025;-60
2022/06/12 05:09:20;;;;;;;6.75;6.45;;;;;;;21.19;100.00;100536.63;5050633;28;20032;-62
2022/06/12 05:11:46;;;;;;;6.55;6.25;;;;;;;21.30;100.00;100543.88;5045871;28;20021;-61
2022/06/12 05:14:11;;;;;;;6.70;6.40;;;;;;;21.33;100.00;100550.66;5042957;28;20056;-62
2022/06/12 05:16:37;;;;;;;6.68;6.38;;;;;;;21.52;100.00;100557.44;5050714;28;20033;-62
2022/06/12 05:19:06;;;;;;;6.70;6.40;;;;;;;21.58;100.00;100561.03;5053819;28;20051;-62
2022/06/12 05:21:32;;;;;;;6.80;6.50;;;;;;;21.53;100.00;100567.19;5054007;28;20020;-62
2022/06/12 05:24:00;;;;;;;6.47;6.18;;;;;;;22.33;98.65;100565.91;5058161;28;20497;-63
2022/06/12 05:26:26;;;;;;;6.97;6.68;;;;;;;24.54;85.43;100587.28;5040580;28;20035;-62
2022/06/12 05:28:53;;;;;;;6.72;6.43;;;;;;;23.06;93.36;100585.38;5054304;28;20020;-62
2022/06/12 05:31:19;;;;;;;6.97;6.68;;;;;;;22.73;95.55;100589.91;5051128;28;20115;-62
2022/06/12 05:33:45;;;;;;;6.60;6.30;;;;;;;22.81;95.62;100583.22;5054097;28;20105;-62
2022/06/12 05:36:13;;;;;;;6.78;6.47;;;;;;;22.98;95.18;100591.25;5053971;28;20079;-62
2022/06/12 05:38:41;;;;;;;6.53;6.22;;;;;;;22.74;95.47;100588.81;5054167;28;20021;-61
2022/06/12 05:41:07;;;;;;;6.80;6.50;;;;;;;22.72;95.29;100593.66;5053843;28;20017;-62
2022/06/12 05:43:32;;;;;;;6.65;6.35;;;;;;;22.66;95.59;100602.78;5053889;28;20488;-61
2022/06/12 05:45:58;;;;;;;6.88;6.57;;;;;;;22.62;95.32;100593.53;5052615;28;20087;-62
2022/06/12 05:48:23;;;;;;;6.70;6.40;;;;;;;22.48;96.31;100598.53;5042479;28;20409;-63
2022/06/12 05:50:59;;;;;;;6.70;6.40;;;;;;;22.13;98.78;100603.47;5048992;28;20104;-62
2022/06/12 05:53:27;;;;;;;6.90;6.60;;;;;;;22.45;96.73;100601.72;5053359;28;20028;-61
2022/06/12 05:55:54;;;;;;;6.40;6.10;;;;;;;21.92;100.00;100610.44;5053576;28;20093;-62
2022/06/12 05:58:22;;;;;;;6.80;6.50;;;;;;;22.05;99.35;100618.19;5048581;28;20393;-63
2022/06/12 06:00:49;;;;;;;6.95;6.65;;;;;;;21.96;100.00;100619.66;5042670;28;20037;-62
2022/06/12 06:03:15;;;;;;;7.00;6.70;;;;;;;21.70;100.00;100608.47;5046070;28;20029;-63
2022/06/12 06:05:43;;;;;;;6.63;6.32;;;;;;;21.89;100.00;100616.34;5058754;28;20029;-62
2022/06/12 06:08:11;;;;;;;6.68;6.38;;;;;;;21.63;100.00;100612.41;5036921;28;20061;-62
2022/06/12 06:10:38;;;;;;;6.55;6.25;;;;;;;21.52;100.00;100622.22;5045072;28;20017;-64
2022/06/12 06:13:04;;;;;;;6.60;6.30;;;;;;;21.70;100.00;100621.16;5049423;28;20079;-63
2022/06/12 06:15:30;;;;;;;6.70;6.40;;;;;;;21.78;100.00;100616.16;5053423;28;20025;-64
2022/06/12 06:17:56;;;;;;;7.20;6.90;;;;;;;21.88;100.00;100618.19;5049319;28;20024;-63
2022/06/12 06:20:26;;;;;;;6.60;6.30;;;;;;;21.88;100.00;100623.59;5049454;28;20029;-63
2022/06/12 06:22:53;;;;;;;6.65;6.35;;;;;;;21.54;100.00;100617.41;5049211;28;20029;-63
2022/06/12 06:25:20;;;;;;;6.70;6.40;;;;;;;21.51;100.00;100621.38;5053094;28;20040;-62
2022/06/12 06:27:46;;;;;;;6.70;6.40;;;;;;;21.52;100.00;100601.47;5049986;28;20503;-63
2022/06/12 06:30:13;;;;;;;6.85;6.55;;;;;;;21.56;100.00;100623.38;5051652;28;20020;-63
2022/06/12 06:32:38;;;;;;;6.75;6.45;;;;;;;21.47;100.00;100624.84;5056225;28;20053;-64
2022/06/12 06:35:04;;;;;;;6.90;6.60;;;;;;;21.60;100.00;100621.00;5050132;28;20424;-63
2022/06/12 06:37:32;;;;;;;6.63;6.32;;;;;;;21.65;100.00;100627.28;5060956;28;20055;-63
2022/06/12 06:39:58;;;;;;;6.50;6.20;;;;;;;21.59;100.00;100622.84;5059560;28;20044;-62
2022/06/12 06:42:23;;;;;;;6.63;6.32;;;;;;;21.46;100.00;100621.31;5052361;28;20026;-62
2022/06/12 06:47:35;;;;;;;6.60;6.30;;;;;;;21.64;100.00;100632.94;5045924;28;20107;-63
2022/06/12 06:50:02;;;;;;;6.57;6.28;;;;;;;21.87;100.00;100634.66;5049877;28;20036;-63
2022/06/12 06:52:28;;;;;;;6.70;6.40;;;;;;;21.84;100.00;100637.84;5059938;28;20117;-63
2022/06/12 06:54:53;;;;;;;6.50;6.20;;;;;;;21.79;100.00;100635.88;5059632;28;20491;-63
2022/06/12 06:57:19;;;;;;;7.00;6.70;;;;;;;21.80;100.00;100637.50;5051041;28;20054;-64
2022/06/12 06:59:44;;;;;;;6.80;6.50;;;;;;;21.83;100.00;100630.81;5051438;28;20032;-63
2022/06/12 07:02:11;;;;;;;6.70;6.40;;;;;;;21.77;100.00;100636.13;5051666;28;20396;-63
2022/06/12 07:04:37;;;;;;;6.63;6.32;;;;;;;22.00;100.00;100631.63;5062370;28;20510;-63
2022/06/12 07:07:03;;;;;;;6.70;6.40;;;;;;;21.99;100.00;100644.31;5051101;28;20509;-63
2022/06/12 07:09:28;;;;;;;6.60;6.30;;;;;;;22.12;100.00;100634.25;5059583;28;20056;-63
2022/06/12 07:11:54;;;;;;;6.40;6.10;;;;;;;22.40;100.00;100641.38;5057702;28;20511;-63
2022/06/12 07:14:20;;;;;;;7.10;6.80;;;;;;;22.28;100.00;100644.22;5045815;28;20035;-62
2022/06/12 07:16:45;;;;;;;6.80;6.50;;;;;;;22.32;100.00;100646.16;5038904;28;20637;-61
2022/06/12 07:19:11;;;;;;;6.82;6.53;;;;;;;22.23;100.00;100649.53;5045677;28;20033;-61
2022/06/12 07:21:38;;;;;;;6.80;6.50;;;;;;;22.14;100.00;100643.75;5044630;28;20040;-61
2022/06/12 07:24:03;;;;;;;6.60;6.30;;;;;;;22.24;100.00;100654.69;5051358;28;20113;-62
2022/06/12 07:26:34;;;;;;;6.75;6.45;;;;;;;22.38;100.00;100651.63;5050711;28;20087;-62
2022/06/12 07:29:00;;;;;;;6.60;6.30;;;;;;;22.51;100.00;100652.09;5051291;28;20029;-62
2022/06/12 07:31:26;;;;;;;6.50;6.20;;;;;;;22.64;100.00;100650.91;5052291;28;20036;-62
2022/06/12 07:33:51;;;;;;;6.68;6.38;;;;;;;23.10;100.00;100654.16;5051987;28;20020;-61
2022/06/12 07:36:18;;;;;;;6.70;6.40;;;;;;;23.41;100.00;100653.41;5050939;28;20065;-61
2022/06/12 07:38:46;;;;;;;6.70;6.40;;;;;;;24.07;100.00;100655.03;5049910;28;20040;-61
2022/06/12 07:41:13;;;;;;;6.72;6.43;;;;;;;24.65;98.80;100666.78;5051021;28;20032;-62
2022/06/12 07:43:41;;;;;;;6.68;6.38;;;;;;;24.93;97.47;100660.09;5051417;28;20059;-60
2022/06/12 07:46:10;;;;;;;6.93;6.63;;;;;;;25.55;92.71;100649.09;5049017;28;20029;-60
2022/06/12 07:48:36;;;;;;;6.65;6.35;;;;;;;25.93;90.75;100651.56;5046686;28;20041;-61
2022/06/12 07:51:05;;;;;;;6.70;6.40;;;;;;;26.11;89.34;100656.44;5049076;28;20025;-60
2022/06/12 07:53:31;;;;;;;6.85;6.55;;;;;;;27.22;83.89;100652.50;5048346;28;20021;-61
2022/06/12 07:55:57;;;;;;;6.85;6.55;;;;;;;26.62;86.08;100659.06;5057945;28;20027;-60
2022/06/12 07:58:24;;;;;;;6.80;6.50;;;;;;;27.33;82.17;100652.44;5043724;28;20036;-61
2022/06/12 08:00:52;;;;;;;6.60;6.30;;;;;;;27.19;81.96;100652.25;5048660;28;20079;-60
2022/06/12 08:03:18;;;;;;;6.88;6.57;;;;;;;28.19;78.01;100653.63;5050733;28;20032;-61
2022/06/12 08:05:44;;;;;;;7.03;6.72;;;;;;;29.15;72.60;100660.66;5048540;28;20039;-61
2022/06/12 08:08:09;;;;;;;6.80;6.50;;;;;;;29.40;71.64;100659.47;5050971;28;20021;-61
2022/06/12 08:10:35;;;;;;;6.70;6.40;;;;;;;28.77;71.11;100659.78;5050106;28;20392;-61
2022/06/12 08:13:04;;;;;;;6.80;6.50;;;;;;;28.08;74.03;100647.47;5057420;28;20043;-60
2022/06/12 08:15:30;;;;;;;6.43;6.13;;;;;;;26.76;78.85;100646.47;5047935;28;20036;-63
2022/06/12 08:17:57;;;;;;;6.53;6.22;;;;;;;27.22;78.49;100652.50;5048197;28;20025;-65
2022/06/12 08:20:24;;;;;;;6.90;6.60;;;;;;;28.38;72.03;100654.53;5054031;28;20590;-62
2022/06/12 08:22:53;;;;;;;7.15;6.85;;;;;;;29.07;68.06;100646.84;5051320;28;20484;-60
2022/06/12 08:25:19;;;;;;;7.20;6.90;;;;;;;29.31;67.60;100636.66;5052184;28;20487;-60
2022/06/12 08:27:45;;;;;;;6.93;6.63;;;;;;;28.68;69.53;100642.44;5046851;28;20017;-60
2022/06/12 08:30:11;;;;;;;7.15;6.85;;;;;;;29.35;67.54;100642.31;5050037;28;20023;-61
2022/06/12 08:32:37;;;;;;;7.13;6.82;;;;;;;29.47;65.97;100644.63;5050803;28;20106;-59
2022/06/12 08:35:11;;;;;;;6.88;6.57;;;;;;;29.98;62.91;100647.31;5050863;28;20440;-60
2022/06/12 08:37:39;;;;;;;7.03;6.72;;;;;;;29.27;66.00;100652.00;5050386;28;20525;-59
2022/06/12 08:40:12;;;;;;;7.15;6.85;;;;;;;29.62;64.83;100647.13;5047807;28;20062;-61
2022/06/12 08:42:49;;;;;;;6.53;6.22;;;;;;;30.16;62.44;100649.19;5036718;28;20025;-60
2022/06/12 08:45:21;;;;;;;7.00;6.70;;;;;;;29.19;65.08;100652.69;5046304;28;20461;-60
2022/06/12 08:48:07;;;;;;;7.07;6.78;;;;;;;29.72;62.71;100639.56;5051230;28;20056;-61
2022/06/12 08:50:40;;;;;;;6.93;6.63;;;;;;;29.04;64.80;100641.97;5051294;28;20194;-60
2022/06/12 08:53:14;;;;;;;6.93;6.63;;;;;;;29.91;62.10;100635.97;5054273;28;20025;-60
2022/06/12 08:55:53;;;;;;;6.90;6.60;;;;;;;30.37;60.68;100641.41;5043590;28;20034;-60
2022/06/12 08:58:45;;;;;;;6.90;6.60;;;;;;;31.18;57.71;100646.25;5053441;28;20413;-60
2022/06/12 09:01:11;;;;;;;6.93;6.63;;;;;;;30.98;58.27;100637.38;5046354;28;20054;-60
2022/06/12 09:03:43;;;;;;;6.90;6.60;;;;;;;30.48;58.76;100626.41;5054562;28;20024;-60
2022/06/12 09:06:42;;;;;;;7.07;6.78;;;;;;;29.93;59.82;100626.31;5053216;28;20492;-60
2022/06/12 09:09:23;;;;;;;7.20;6.90;;;;;;;30.05;60.28;100634.06;5043863;28;20105;-60
2022/06/12 09:11:51;;;;;;;7.00;6.70;;;;;;;30.72;58.28;100637.13;5041638;28;20187;-60
2022/06/12 09:14:46;;;;;;;7.00;6.70;;;;;;;30.35;59.06;100626.41;5053975;28;20025;-60
2022/06/12 09:17:11;;;;;;;6.90;6.60;;;;;;;29.07;62.96;100633.19;5042458;28;20026;-60
2022/06/12 09:19:58;;;;;;;6.75;6.45;;;;;;;29.66;61.83;100623.53;5049969;28;20085;-60
2022/06/12 09:22:54;;;;;;;6.70;6.40;;;;;;;28.55;66.06;100634.94;5054161;28;20017;-60
2022/06/12 09:25:39;;;;;;;6.80;6.50;;;;;;;28.72;65.62;100629.84;5042367;28;20060;-60
2022/06/12 09:28:17;;;;;;;6.88;6.57;;;;;;;29.37;62.68;100620.97;5053302;28;20036;-60
2022/06/12 09:30:49;;;;;;;6.80;6.50;;;;;;;28.62;64.97;100625.28;5054335;28;20039;-60
2022/06/12 09:33:30;;;;;;;6.85;6.55;;;;;;;28.40;66.96;100630.50;5039914;28;20065;-60
2022/06/12 09:36:34;;;;;;;6.80;6.50;;;;;;;28.11;67.57;100627.78;5042228;28;20494;-60
2022/06/12 09:39:22;;;;;;;6.78;6.47;;;;;;;27.32;70.62;100618.91;5054248;28;20043;-60
2022/06/12 09:42:02;;;;;;;6.90;6.60;;;;;;;28.95;63.19;100613.72;5053777;28;20032;-61
2022/06/12 09:44:55;;;;;;;6.90;6.60;;;;;;;29.76;59.84;100611.63;5053056;28;20025;-60
2022/06/12 09:47:32;;;;;;;6.70;6.40;;;;;;;28.50;62.81;100616.75;5053836;28;20025;-59
2022/06/12 09:50:12;;;;;;;6.78;6.47;;;;;;;28.63;61.32;100612.47;5035931;28;20051;-60
2022/06/12 09:52:58;;;;;;;6.53;6.22;;;;;;;28.06;61.69;100603.31;5051795;28;20557;-60
2022/06/12 09:55:44;;;;;;;6.53;6.22;;;;;;;28.41;61.37;100620.38;5053561;28;20032;-61
2022/06/12 09:58:21;;;;;;;6.70;6.40;;;;;;;28.68;60.00;100609.66;5053517;28;20112;-61
2022/06/12 10:01:07;;;;;;;6.75;6.45;;;;;;;29.09;59.40;100609.13;5053671;28;20028;-61
2022/06/12 10:04:10;;;;;;;6.70;6.40;;;;;;;28.59;60.08;100604.06;5059606;28;20025;-61
2022/06/12 10:06:49;;;;;;;6.80;6.50;;;;;;;28.62;60.65;100597.19;5051461;28;20514;-61
2022/06/12 10:09:49;;;;;;;6.85;6.55;;;;;;;28.85;59.63;100601.78;5053330;28;20104;-60
2022/06/12 10:12:28;;;;;;;6.78;6.47;;;;;;;29.11;59.13;100588.59;5045317;28;20032;-61
2022/06/12 10:15:00;;;;;;;6.70;6.40;;;;;;;29.09;59.27;100599.03;5053425;28;20366;-60
2022/06/12 10:17:32;;;;;;;6.60;6.30;;;;;;;28.50;60.44;100600.38;5053063;28;20492;-60
2022/06/12 10:20:18;;;;;;;6.70;6.40;;;;;;;28.02;60.92;100588.63;5052211;28;20043;-60
2022/06/12 10:22:47;;;;;;;6.90;6.60;;;;;;;28.23;60.37;100589.19;5041472;28;20025;-61
2022/06/12 10:25:38;;;;;;;6.80;6.50;;;;;;;28.10;60.63;100587.97;5052907;28;20503;-60
2022/06/12 10:28:06;;;;;;;6.70;6.40;;;;;;;27.88;61.89;100595.84;5050923;28;20032;-60
2022/06/12 10:30:42;;;;;;;6.82;6.53;;;;;;;27.59;61.76;100587.66;5045002;28;20060;-60
2022/06/12 10:33:23;;;;;;;6.85;6.55;;;;;;;27.77;62.34;100578.81;5042471;28;20032;-60
2022/06/12 10:35:56;;;;;;;6.60;6.30;;;;;;;27.96;63.04;100585.13;5047930;28;20024;-60
2022/06/12 10:38:24;;;;;;;6.80;6.50;;;;;;;27.68;63.44;100581.31;5052817;28;20024;-60
2022/06/12 10:40:57;;;;;;;6.70;6.40;;;;;;;27.42;64.83;100569.00;5052661;28;20107;-60
2022/06/12 10:43:33;;;;;;;6.82;6.53;;;;;;;27.93;64.26;100574.81;5052658;28;20021;-60
2022/06/12 10:46:04;;;;;;;6.88;6.57;;;;;;;27.91;63.79;100578.91;5052775;28;20025;-60
2022/06/12 10:48:34;;;;;;;6.78;6.47;;;;;;;27.30;65.23;100576.72;5042674;28;20065;-60
2022/06/12 10:51:13;;;;;;;6.70;6.40;;;;;;;27.54;65.44;100569.41;5039343;28;20747;-61
2022/06/12 10:53:40;;;;;;;6.78;6.47;;;;;;;26.67;67.99;100564.59;5051209;28;20400;-61
2022/06/12 10:56:22;;;;;;;6.60;6.30;;;;;;;27.31;66.95;100568.25;5052620;28;20028;-60
2022/06/12 10:59:00;;;;;;;6.80;6.50;;;;;;;27.29;65.64;100558.75;5052315;28;20486;-60
2022/06/12 11:01:50;;;;;;;6.93;6.63;;;;;;;27.49;65.72;100564.03;5051908;28;20040;-60
2022/06/12 11:04:24;;;;;;;6.55;6.25;;;;;;;27.35;66.08;100565.78;5039110;28;20510;-61
2022/06/12 11:07:02;;;;;;;;;;;;;;;27.78;65.33;100567.59;5036538;28;20065;-61
2022/06/12 11:09:47;;;;;;;6.95;6.65;;;;;;;27.23;66.58;100555.25;5044112;28;19932;-61
2022/06/12 11:12:32;;;;;;;;;;;;;;;27.16;67.14;100547.41;5042671;28;20035;-60
2022/06/12 11:15:17;;;;;;;6.75;6.45;;;;;;;27.07;68.18;100545.59;5037448;28;20409;-61
2022/06/12 11:18:04;;;;;;;6.70;6.40;;;;;;;27.63;67.29;100553.28;5048739;28;20040;-61
2022/06/12 11:20:32;;;;;;;6.57;6.28;;;;;;;27.38;68.49;100557.03;5052147;28;20112;-59
2022/06/12 11:23:10;;;;;;;6.90;6.60;;;;;;;27.22;68.45;100554.44;5051778;28;20078;-59
2022/06/12 11:25:48;;;;;;;6.50;6.20;;;;;;;27.68;67.69;100551.31;5043029;28;20040;-61
2022/06/12 11:28:23;;;;;;;6.55;6.25;;;;;;;27.44;65.09;100540.38;5050689;28;20488;-60
2022/06/12 11:31:11;;;;;;;6.60;6.30;;;;;;;27.81;64.86;100544.38;5051710;28;20029;-60
2022/06/12 11:33:40;;;;;;;6.93;6.63;;;;;;;27.64;65.61;100535.81;5051974;28;20376;-61
2022/06/12 11:36:17;;;;;;;6.75;6.45;;;;;;;27.83;65.74;100531.28;5051768;28;20037;-61
2022/06/12 11:39:12;;;;;;;6.80;6.50;;;;;;;27.53;66.17;100533.19;5047400;28;20400;-61
2022/06/12 11:41:53;;;;;;;6.70;6.40;;;;;;;28.08;64.28;100522.81;5039204;28;20082;-61
2022/06/12 11:44:33;;;;;;;6.40;6.10;;;;;;;28.20;63.76;100524.28;5044132;28;20453;-59
2022/06/12 11:47:33;;;;;;;6.60;6.30;;;;;;;28.04;66.13;100520.94;5048058;28;20035;-61
2022/06/12 11:50:23;;;;;;;6.80;6.50;;;;;;;28.53;65.46;100522.53;5051304;28;20500;-60
2022/06/12 11:53:15;;;;;;;6.75;6.45;;;;;;;28.22;66.05;100517.47;5051424;28;20530;-60
2022/06/12 11:55:56;;;;;;;6.68;6.38;;;;;;;28.32;66.58;100503.72;5043972;28;20056;-61
2022/06/12 11:58:47;;;;;;;6.70;6.40;;;;;;;28.65;64.80;100500.28;5046422;28;20032;-60
2022/06/12 12:01:35;;;;;;;6.68;6.38;;;;;;;28.57;65.77;100480.72;5040451;28;20032;-61